Time;durP1;ratioP1;P1;durP2;ratioP2;P2;SDS_P1;SDS_P2;PMS_P1;PMS_P2;Temp;Humidity;BMP_temperature;BMP_pressure;BME280_temperature;BME280_humidity;BME280_pressure;Samples;Min_cycle;Max_cycle;Signal;HPM_P1;HPM_P2
2022/06/10 00:00:22;;;;;;;7.78;4.10;;;11.50;99.90;;;;;;5060160;28;20036;-78
2022/06/10 00:02:48;;;;;;;8.90;4.40;;;11.50;99.90;;;;;;5039729;28;20047;-80
2022/06/10 00:05:18;;;;;;;8.85;4.22;;;11.40;99.90;;;;;;5026326;28;20040;-79
2022/06/10 00:07:44;;;;;;;11.25;4.28;;;11.40;99.90;;;;;;5045974;28;20319;-79
2022/06/10 00:10:16;;;;;;;9.77;4.60;;;11.40;99.90;;;;;;5026170;28;20598;-79
2022/06/10 00:12:47;;;;;;;8.02;4.18;;;11.40;99.90;;;;;;5042713;28;20123;-80
2022/06/10 00:15:17;;;;;;;9.77;4.15;;;11.30;99.90;;;;;;5077406;28;20048;-81
2022/06/10 00:17:44;;;;;;;7.10;3.70;;;11.30;99.90;;;;;;5043029;28;20887;-79
2022/06/10 00:20:16;;;;;;;5.68;3.65;;;11.30;99.90;;;;;;5058832;28;20078;-79
2022/06/10 00:22:46;;;;;;;10.35;4.43;;;11.30;99.90;;;;;;5058926;28;20101;-79
2022/06/10 00:25:15;;;;;;;8.55;3.90;;;11.30;99.90;;;;;;5045867;28;20504;-79
2022/06/10 00:27:41;;;;;;;8.45;4.20;;;11.30;99.90;;;;;;5046255;28;20605;-80
2022/06/10 00:30:10;;;;;;;8.63;4.63;;;11.20;99.90;;;;;;5027695;28;20059;-79
2022/06/10 00:32:40;;;;;;;12.80;4.88;;;11.20;99.90;;;;;;5061507;28;20121;-79
2022/06/10 00:35:07;;;;;;;9.57;4.38;;;11.20;99.90;;;;;;5041198;28;20664;-79
2022/06/10 00:37:33;;;;;;;9.23;5.25;;;11.10;99.90;;;;;;5044316;28;20491;-79
2022/06/10 00:39:59;;;;;;;10.35;4.72;;;11.20;99.90;;;;;;5024250;28;20630;-79
2022/06/10 00:42:25;;;;;;;10.32;5.03;;;11.20;99.90;;;;;;5027311;28;20090;-79
2022/06/10 00:44:56;;;;;;;8.55;4.50;;;11.20;99.90;;;;;;5025532;28;20043;-79
2022/06/10 00:47:29;;;;;;;9.27;5.17;;;11.20;99.90;;;;;;5052234;28;20053;-79
2022/06/10 00:50:08;;;;;;;6.30;4.68;;;11.10;99.90;;;;;;5070019;28;20063;-79
2022/06/10 00:52:38;;;;;;;10.45;4.82;;;11.10;99.90;;;;;;5057627;28;20254;-79
2022/06/10 00:55:10;;;;;;;10.43;5.30;;;11.10;99.90;;;;;;5026824;28;20044;-79
2022/06/10 00:57:40;;;;;;;12.70;6.07;;;11.10;99.90;;;;;;5058368;28;20052;-79
2022/06/10 01:00:10;;;;;;;13.15;7.30;;;11.10;99.90;;;;;;5023151;28;20630;-79
2022/06/10 01:02:38;;;;;;;10.80;6.72;;;11.00;99.90;;;;;;5045035;28;20065;-79
2022/06/10 01:05:14;;;;;;;11.55;6.80;;;11.00;99.90;;;;;;5022137;28;20518;-79
2022/06/10 01:07:45;;;;;;;13.05;6.03;;;11.00;99.90;;;;;;5025395;28;20047;-79
2022/06/10 01:10:17;;;;;;;10.80;6.57;;;11.00;99.90;;;;;;5056142;28;20059;-79
2022/06/10 01:13:06;;;;;;;9.05;6.13;;;11.00;99.90;;;;;;5040313;28;20059;-79
2022/06/10 01:15:40;;;;;;;10.65;6.65;;;10.90;99.90;;;;;;5040424;28;20656;-80
2022/06/10 01:18:06;;;;;;;8.70;6.30;;;10.90;99.90;;;;;;5028342;28;20040;-79
2022/06/10 01:21:04;;;;;;;15.70;6.97;;;10.90;99.90;;;;;;5074519;28;20055;-79
2022/06/10 01:23:52;;;;;;;10.70;6.72;;;10.90;99.90;;;;;;5056439;28;20075;-79
2022/06/10 01:26:27;;;;;;;11.25;6.20;;;10.90;99.90;;;;;;5063915;28;20047;-80
2022/06/10 01:29:21;;;;;;;13.65;7.18;;;10.90;99.90;;;;;;5033881;28;20049;-80
2022/06/10 01:32:00;;;;;;;11.10;6.75;;;10.90;99.90;;;;;;5061180;28;20578;-80
2022/06/10 01:34:35;;;;;;;13.38;6.38;;;10.80;99.90;;;;;;5048540;28;20054;-80
2022/06/10 01:37:10;;;;;;;10.52;6.65;;;10.90;99.90;;;;;;5056474;28;20062;-80
2022/06/10 01:39:55;;;;;;;10.43;5.75;;;10.80;99.90;;;;;;5061383;28;20781;-80
2022/06/10 01:42:45;;;;;;;9.52;6.10;;;10.80;99.90;;;;;;5049342;28;20119;-80
2022/06/10 01:45:20;;;;;;;14.18;6.13;;;10.90;99.90;;;;;;5043202;28;20091;-80
2022/06/10 01:47:52;;;;;;;;;;;10.80;99.90;;;;;;5047869;28;20058;-80
2022/06/10 01:50:26;;;;;;;13.18;7.18;;;10.80;99.90;;;;;;5077356;28;19916;-80
2022/06/10 01:53:21;;;;;;;10.25;5.90;;;10.70;99.90;;;;;;5079164;28;20132;-80
2022/06/10 01:56:11;;;;;;;9.75;5.43;;;10.80;99.90;;;;;;5060933;28;20127;-80
2022/06/10 01:59:01;;;;;;;7.97;5.82;;;10.70;99.90;;;;;;5031985;28;20044;-80
2022/06/10 02:01:36;;;;;;;11.07;5.70;;;10.70;99.90;;;;;;5058541;28;20392;-80
2022/06/10 02:04:09;;;;;;;12.52;5.88;;;10.70;99.90;;;;;;5065030;28;20055;-80
2022/06/10 02:07:01;;;;;;;10.40;5.72;;;10.60;99.90;;;;;;5046891;28;20554;-80
2022/06/10 02:09:42;;;;;;;11.45;5.95;;;10.60;99.90;;;;;;5074976;28;20082;-80
2022/06/10 02:12:18;;;;;;;10.03;6.07;;;10.60;99.90;;;;;;5036702;28;20036;-80
2022/06/10 02:15:01;;;;;;;11.50;5.50;;;10.50;99.90;;;;;;5040157;28;20438;-80
2022/06/10 02:17:31;;;;;;;11.80;5.97;;;10.60;99.90;;;;;;5060013;28;20488;-80
2022/06/10 02:19:59;;;;;;;11.25;6.00;;;10.60;99.90;;;;;;5065275;28;20058;-80
2022/06/10 02:22:32;;;;;;;13.15;6.15;;;10.60;99.90;;;;;;5045475;28;20072;-80
2022/06/10 02:25:09;;;;;;;9.38;5.97;;;10.60;99.90;;;;;;5045682;28;20052;-80
2022/06/10 02:27:40;;;;;;;8.68;6.03;;;10.50;99.90;;;;;;5079441;28;20052;-80
2022/06/10 02:30:18;;;;;;;9.85;5.50;;;10.50;99.90;;;;;;5062681;28;20483;-80
2022/06/10 02:32:46;;;;;;;9.77;5.63;;;10.60;99.90;;;;;;5052353;28;20103;-80
2022/06/10 02:35:17;;;;;;;12.52;6.50;;;10.60;99.90;;;;;;5078557;28;20534;-80
2022/06/10 02:38:43;;;;;;;11.37;5.73;;;10.50;99.90;;;;;;5045473;28;20054;-80
2022/06/10 02:41:23;;;;;;;9.38;5.72;;;10.50;99.90;;;;;;5004446;28;20335;-80
2022/06/10 02:44:02;;;;;;;7.70;5.50;;;10.40;99.90;;;;;;5040423;28;20044;-80
2022/06/10 02:46:38;;;;;;;11.32;5.95;;;10.40;99.90;;;;;;5035826;28;20060;-80
2022/06/10 02:49:07;;;;;;;8.00;5.53;;;10.40;99.90;;;;;;5064278;28;20055;-80
2022/06/10 02:51:37;;;;;;;11.23;5.63;;;10.40;99.90;;;;;;5047115;28;20054;-80
2022/06/10 02:54:07;;;;;;;10.90;5.07;;;10.40;99.90;;;;;;5080234;28;20044;-79
2022/06/10 02:56:33;;;;;;;10.95;5.57;;;10.30;99.90;;;;;;5027135;28;20044;-80
2022/06/10 03:02:16;;;;;;;8.55;4.30;;;10.30;99.90;;;;;;5060784;28;20487;-80
2022/06/10 03:05:01;;;;;;;9.25;5.60;;;10.30;99.90;;;;;;5058145;28;20496;-79
2022/06/10 03:08:01;;;;;;;9.27;4.60;;;10.30;99.90;;;;;;5062026;28;20350;-80
2022/06/10 03:10:41;;;;;;;9.27;5.80;;;10.30;99.90;;;;;;5061033;28;20063;-79
2022/06/10 03:13:52;;;;;;;9.40;5.28;;;10.20;99.90;;;;;;5051231;28;20090;-80
2022/06/10 03:17:10;;;;;;;14.43;5.65;;;10.30;99.90;;;;;;5037999;28;20059;-79
2022/06/10 03:19:41;;;;;;;9.35;5.20;;;10.30;99.90;;;;;;5070286;28;20048;-79
2022/06/10 03:22:21;;;;;;;12.77;5.47;;;10.20;99.90;;;;;;5051748;28;20043;-79
2022/06/10 03:24:57;;;;;;;8.73;5.03;;;10.20;99.90;;;;;;5043447;28;20055;-79
2022/06/10 03:27:40;;;;;;;11.45;5.72;;;10.20;99.90;;;;;;5060541;28;20067;-79
2022/06/10 03:30:14;;;;;;;7.93;6.07;;;10.30;99.90;;;;;;5061553;28;20048;-79
2022/06/10 03:32:48;;;;;;;10.75;4.97;;;10.20;99.90;;;;;;5073935;28;20049;-79
2022/06/10 03:35:24;;;;;;;8.10;5.15;;;10.20;99.90;;;;;;5057772;28;20052;-79
2022/06/10 03:37:50;;;;;;;7.00;4.68;;;10.20;99.90;;;;;;5027328;28;20044;-79
2022/06/10 03:40:26;;;;;;;9.10;5.45;;;10.20;99.90;;;;;;5047759;28;20051;-79
2022/06/10 03:42:56;;;;;;;14.68;5.80;;;10.20;99.90;;;;;;5070766;28;20131;-79
2022/06/10 03:45:33;;;;;;;13.50;5.10;;;10.30;99.90;;;;;;5051994;28;20281;-79
2022/06/10 03:48:03;;;;;;;11.07;5.28;;;10.30;99.90;;;;;;5028633;28;20847;-79
2022/06/10 03:50:35;;;;;;;9.30;5.15;;;10.30;99.90;;;;;;5021976;28;20044;-79
2022/06/10 03:53:04;;;;;;;9.63;5.55;;;10.40;99.90;;;;;;5027752;28;20774;-79
2022/06/10 03:55:30;;;;;;;12.52;6.25;;;10.40;99.90;;;;;;5044468;28;20052;-79
2022/06/10 03:57:59;;;;;;;12.35;6.18;;;10.50;99.90;;;;;;5058786;28;20109;-79
2022/06/10 04:00:31;;;;;;;12.20;6.78;;;10.50;99.90;;;;;;5022813;28;20050;-79
2022/06/10 04:02:57;;;;;;;15.60;6.75;;;10.60;99.90;;;;;;5048734;28;20051;-79
2022/06/10 04:05:24;;;;;;;14.57;6.57;;;10.60;99.90;;;;;;5045459;28;20044;-79
2022/06/10 04:07:51;;;;;;;12.32;6.35;;;10.70;99.90;;;;;;5057640;28;20182;-79
2022/06/10 04:10:20;;;;;;;11.88;6.72;;;10.80;99.90;;;;;;5054282;28;20039;-79
2022/06/10 04:12:46;;;;;;;12.27;6.30;;;10.80;99.90;;;;;;5060459;28;20044;-79
2022/06/10 04:15:17;;;;;;;11.80;6.15;;;10.80;99.90;;;;;;5039881;28;20055;-79
2022/06/10 04:17:49;;;;;;;13.27;6.00;;;10.90;99.90;;;;;;5017692;28;20580;-79
2022/06/10 04:20:22;;;;;;;11.73;6.72;;;11.00;99.90;;;;;;5055342;28;20054;-78
2022/06/10 04:22:48;;;;;;;17.27;7.30;;;11.10;99.90;;;;;;5063142;28;20389;-78
2022/06/10 04:25:14;;;;;;;15.55;6.88;;;11.10;99.90;;;;;;5061131;28;20119;-78
2022/06/10 04:27:43;;;;;;;15.57;6.90;;;11.20;99.90;;;;;;5023419;28;20123;-78
2022/06/10 04:30:21;;;;;;;16.35;7.65;;;11.30;99.90;;;;;;5056774;28;20119;-78
2022/06/10 04:32:50;;;;;;;13.05;6.80;;;11.40;99.90;;;;;;5061508;28;20040;-78
2022/06/10 04:35:17;;;;;;;16.38;7.10;;;11.50;99.90;;;;;;5044409;28;20051;-78
2022/06/10 04:37:44;;;;;;;17.80;7.60;;;11.60;99.90;;;;;;5027888;28;20055;-78
2022/06/10 04:40:16;;;;;;;13.95;7.53;;;11.70;99.90;;;;;;5022746;28;20463;-78
2022/06/10 04:42:43;;;;;;;;;;;11.80;99.90;;;;;;5062044;28;20048;-79
2022/06/10 04:45:10;;;;;;;14.98;6.75;;;11.90;99.90;;;;;;5053888;28;20677;-78
2022/06/10 04:47:37;;;;;;;13.40;6.75;;;12.10;99.90;;;;;;5040124;28;20140;-78
2022/06/10 04:50:04;;;;;;;13.55;6.93;;;12.20;99.90;;;;;;5036883;28;20080;-78
2022/06/10 04:52:30;;;;;;;10.80;6.93;;;12.30;99.90;;;;;;5042856;28;20044;-79
2022/06/10 04:54:58;;;;;;;13.23;6.85;;;12.40;99.90;;;;;;5038623;28;20049;-78
2022/06/10 04:57:24;;;;;;;12.02;7.65;;;12.50;99.90;;;;;;5019732;28;20054;-78
2022/06/10 04:59:50;;;;;;;13.32;8.02;;;12.70;99.90;;;;;;5055073;28;20540;-79
2022/06/10 05:02:16;;;;;;;15.52;8.52;;;12.80;99.90;;;;;;5042554;28;20644;-78
2022/06/10 05:04:42;;;;;;;10.65;7.45;;;13.00;99.90;;;;;;5048213;28;20403;-79
2022/06/10 05:07:09;;;;;;;13.45;6.45;;;13.30;99.90;;;;;;5031623;28;20055;-78
2022/06/10 05:09:35;;;;;;;9.48;5.78;;;13.70;99.90;;;;;;5045787;28;20051;-78
2022/06/10 05:12:01;;;;;;;13.93;5.43;;;14.20;99.90;;;;;;5045032;28;20415;-78
2022/06/10 05:14:27;;;;;;;13.15;6.20;;;14.70;99.90;;;;;;5068311;28;20078;-78
2022/06/10 05:16:56;;;;;;;11.43;5.35;;;15.00;99.90;;;;;;5048786;28;20055;-78
2022/06/10 05:19:23;;;;;;;12.60;5.28;;;15.20;99.90;;;;;;5030949;28;20040;-78
2022/06/10 05:21:49;;;;;;;9.07;4.53;;;15.40;99.90;;;;;;5074470;28;20123;-78
2022/06/10 05:24:16;;;;;;;11.88;5.25;;;15.80;99.90;;;;;;5062211;28;20048;-79
2022/06/10 05:26:42;;;;;;;8.98;4.50;;;15.90;99.90;;;;;;5064244;28;20044;-79
2022/06/10 05:29:15;;;;;;;10.48;4.28;;;16.30;99.90;;;;;;5021437;28;20130;-78
2022/06/10 05:31:41;;;;;;;12.05;4.70;;;16.20;99.90;;;;;;5069909;28;20542;-78
2022/06/10 05:36:53;;;;;;;12.05;5.00;;;15.80;99.90;;;;;;5077275;28;20040;-78
2022/06/10 05:39:21;;;;;;;9.85;4.43;;;15.50;99.90;;;;;;5044327;28;20135;-79
2022/06/10 05:42:06;;;;;;;12.32;4.80;;;15.30;99.90;;;;;;5010949;28;20044;-79
2022/06/10 05:44:34;;;;;;;10.02;5.55;;;15.10;99.90;;;;;;5071395;27;20052;-78
2022/06/10 05:47:00;;;;;;;13.80;5.43;;;15.10;99.90;;;;;;5045659;28;20032;-78
2022/06/10 05:49:28;;;;;;;14.00;6.30;;;15.00;99.90;;;;;;5048184;28;20032;-78
2022/06/10 05:51:55;;;;;;;13.90;5.50;;;15.00;99.90;;;;;;5056611;28;20048;-78
2022/06/10 05:54:22;;;;;;;11.90;5.20;;;14.90;99.90;;;;;;5014428;28;20051;-78
2022/06/10 05:56:48;;;;;;;11.25;5.57;;;14.90;99.90;;;;;;5074501;28;20060;-78
2022/06/10 05:59:15;;;;;;;8.80;5.55;;;14.80;99.90;;;;;;5030581;28;20598;-78
2022/06/10 06:01:44;;;;;;;14.80;5.88;;;14.80;99.90;;;;;;5049833;28;20040;-77
2022/06/10 06:04:10;;;;;;;12.90;5.28;;;14.80;99.90;;;;;;5043756;28;20040;-78
2022/06/10 06:06:36;;;;;;;14.75;5.07;;;14.80;99.90;;;;;;5014723;28;20071;-78
2022/06/10 06:09:03;;;;;;;13.55;6.13;;;14.80;99.90;;;;;;5040387;28;21054;-78
2022/06/10 06:11:31;;;;;;;11.65;5.70;;;14.80;99.90;;;;;;5030576;28;20040;-78
2022/06/10 06:14:02;;;;;;;10.50;6.22;;;14.80;99.90;;;;;;5026995;28;20145;-79
2022/06/10 06:16:30;;;;;;;17.52;6.18;;;14.80;99.90;;;;;;5036202;28;20040;-78
2022/06/10 06:18:56;;;;;;;13.77;5.45;;;14.90;99.90;;;;;;5056707;28;20154;-78
2022/06/10 06:21:25;;;;;;;11.30;5.35;;;14.90;99.90;;;;;;5063820;28;20549;-77
2022/06/10 06:23:51;;;;;;;10.68;5.97;;;15.00;99.90;;;;;;5059396;28;20040;-77
2022/06/10 06:26:17;;;;;;;13.95;6.20;;;15.00;99.90;;;;;;5045078;28;20169;-77
2022/06/10 06:28:44;;;;;;;11.68;5.38;;;15.10;99.90;;;;;;5058635;28;20105;-77
2022/06/10 06:31:10;;;;;;;12.85;5.85;;;15.20;99.90;;;;;;5065867;28;21413;-78
2022/06/10 06:33:37;;;;;;;15.15;6.05;;;15.30;99.90;;;;;;5045335;28;20044;-77
2022/06/10 06:36:04;;;;;;;11.63;5.63;;;15.30;99.90;;;;;;5026441;28;20048;-77
2022/06/10 06:38:31;;;;;;;13.95;5.63;;;15.40;99.90;;;;;;5044551;28;20054;-77
2022/06/10 06:40:57;;;;;;;12.75;5.80;;;15.40;99.90;;;;;;5043838;28;20499;-77
2022/06/10 06:43:23;;;;;;;14.82;5.07;;;15.50;99.90;;;;;;5076709;28;20153;-77
2022/06/10 06:45:49;;;;;;;11.90;5.45;;;15.60;99.90;;;;;;5031239;28;20040;-77
2022/06/10 06:48:15;;;;;;;14.77;6.55;;;15.60;99.90;;;;;;5031222;28;20081;-77
2022/06/10 06:50:46;;;;;;;16.30;7.18;;;15.40;99.90;;;;;;5060378;28;20066;-78
2022/06/10 06:53:12;;;;;;;12.07;7.43;;;15.30;99.90;;;;;;5044773;28;20043;-78
2022/06/10 06:55:41;;;;;;;14.88;8.27;;;15.20;99.90;;;;;;5046460;28;20043;-78
2022/06/10 06:58:30;;;;;;;19.15;8.32;;;15.10;99.90;;;;;;5059843;28;20087;-78
2022/06/10 07:00:59;;;;;;;18.95;8.43;;;15.00;99.90;;;;;;5074701;28;20055;-77
2022/06/10 07:03:25;;;;;;;18.02;8.55;;;15.00;99.90;;;;;;5075617;28;20082;-77
2022/06/10 07:05:55;;;;;;;16.77;9.00;;;15.10;99.90;;;;;;5044793;28;20068;-78
2022/06/10 07:08:23;;;;;;;15.40;8.93;;;15.20;99.90;;;;;;5042200;28;20040;-78
2022/06/10 07:10:49;;;;;;;15.55;9.50;;;15.40;99.90;;;;;;5061597;28;20051;-78
2022/06/10 07:13:18;;;;;;;17.73;9.25;;;15.60;99.90;;;;;;5060498;28;20935;-78
2022/06/10 07:15:45;;;;;;;19.23;8.55;;;15.70;99.90;;;;;;5041147;28;20079;-77
2022/06/10 07:18:17;;;;;;;13.40;7.90;;;15.90;99.90;;;;;;5009924;28;20058;-79
2022/06/10 07:20:46;;;;;;;12.30;8.07;;;15.90;99.90;;;;;;5058408;28;20051;-78
2022/06/10 07:23:12;;;;;;;12.43;7.15;;;15.90;99.90;;;;;;5040332;28;20044;-78
2022/06/10 07:25:45;;;;;;;10.60;7.50;;;16.00;99.90;;;;;;5012574;28;20047;-78
2022/06/10 07:28:12;;;;;;;14.25;6.78;;;16.10;99.90;;;;;;5044821;28;20043;-77
2022/06/10 07:30:40;;;;;;;15.82;7.65;;;16.20;99.90;;;;;;5041178;28;20076;-78
2022/06/10 07:33:07;;;;;;;10.90;7.47;;;16.30;99.90;;;;;;5057117;28;20088;-78
2022/06/10 07:35:34;;;;;;;9.77;6.90;;;16.70;99.90;;;;;;5042386;28;20113;-78
2022/06/10 07:38:01;;;;;;;11.73;7.10;;;16.70;99.90;;;;;;5053309;28;20834;-78
2022/06/10 07:43:15;;;;;;;13.02;7.35;;;17.00;99.90;;;;;;5057330;28;20420;-78
2022/06/10 07:45:42;;;;;;;11.63;6.53;;;17.20;99.90;;;;;;5075264;28;20403;-78
2022/06/10 07:48:13;;;;;;;10.88;6.15;;;17.20;99.90;;;;;;5057517;28;20040;-78
2022/06/10 07:50:42;;;;;;;12.55;6.38;;;17.20;99.90;;;;;;5041811;28;20044;-78
2022/06/10 07:53:09;;;;;;;14.80;6.35;;;17.30;99.90;;;;;;5010088;28;20492;-78
2022/06/10 07:55:37;;;;;;;11.48;6.10;;;17.30;99.90;;;;;;5058849;28;20039;-78
2022/06/10 07:58:03;;;;;;;12.13;6.32;;;17.30;99.90;;;;;;5060631;28;20133;-78
2022/06/10 08:00:30;;;;;;;10.43;6.25;;;17.20;99.90;;;;;;5009808;28;20058;-78
2022/06/10 08:02:57;;;;;;;11.70;5.68;;;17.20;99.90;;;;;;5059573;28;20070;-78
2022/06/10 08:05:26;;;;;;;14.52;6.10;;;17.20;99.90;;;;;;5059114;28;20074;-78
2022/06/10 08:07:52;;;;;;;12.98;6.25;;;17.30;99.90;;;;;;5041359;28;20317;-78
2022/06/10 08:10:30;;;;;;;13.52;5.95;;;17.20;99.90;;;;;;5042567;28;20047;-79
2022/06/10 08:12:57;;;;;;;12.35;6.50;;;17.30;99.90;;;;;;5074826;28;20042;-79
2022/06/10 08:15:23;;;;;;;16.25;6.68;;;17.50;99.90;;;;;;5009526;28;20044;-77
2022/06/10 08:17:51;;;;;;;9.88;5.05;;;17.60;99.90;;;;;;5041611;28;20127;-78
2022/06/10 08:20:22;;;;;;;9.32;5.75;;;17.80;99.90;;;;;;5042931;28;20551;-78
2022/06/10 08:22:51;;;;;;;11.38;5.38;;;17.90;99.90;;;;;;5061261;28;20452;-78
2022/06/10 08:25:17;;;;;;;13.23;5.90;;;17.70;99.90;;;;;;5038360;28;20523;-79
2022/06/10 08:27:44;;;;;;;11.68;4.82;;;17.80;99.90;;;;;;5040971;28;20047;-78
2022/06/10 08:30:16;;;;;;;9.65;5.50;;;17.70;99.90;;;;;;5043354;28;20036;-78
2022/06/10 08:32:42;;;;;;;16.33;7.03;;;17.70;99.90;;;;;;5082245;28;20105;-78
2022/06/10 08:35:08;;;;;;;11.40;5.20;;;17.70;99.90;;;;;;5044904;28;20170;-78
2022/06/10 08:37:34;;;;;;;11.45;5.68;;;17.80;99.90;;;;;;5046974;28;20052;-78
2022/06/10 08:40:00;;;;;;;12.00;4.78;;;17.70;99.90;;;;;;5062851;28;20155;-78
2022/06/10 08:42:39;;;;;;;11.45;4.90;;;17.70;99.90;;;;;;5029738;28;20044;-79
2022/06/10 08:45:28;;;;;;;13.40;5.78;;;17.70;99.90;;;;;;5050773;28;20046;-79
2022/06/10 08:47:57;;;;;;;10.80;5.20;;;17.80;99.90;;;;;;5079594;28;20124;-79
2022/06/10 08:50:48;;;;;;;11.55;5.03;;;18.00;99.90;;;;;;5047910;28;20047;-79
2022/06/10 08:53:44;;;;;;;12.13;5.10;;;18.10;99.90;;;;;;5046594;28;20539;-78
2022/06/10 08:56:46;;;;;;;10.45;4.80;;;18.30;99.90;;;;;;5055344;28;20039;-79
2022/06/10 08:59:40;;;;;;;14.38;6.07;;;18.30;99.90;;;;;;5059848;28;20131;-78
2022/06/10 09:02:12;;;;;;;18.98;10.45;;;18.30;99.90;;;;;;5060887;28;20047;-83
2022/06/10 09:05:01;;;;;;;10.35;5.20;;;18.30;99.90;;;;;;5058329;28;22181;-79
2022/06/10 09:07:49;;;;;;;11.63;5.95;;;18.30;99.90;;;;;;5063114;28;20047;-77
2022/06/10 09:10:35;;;;;;;13.10;5.60;;;18.30;99.90;;;;;;5082354;28;20408;-78
2022/06/10 09:13:41;;;;;;;18.48;6.28;;;18.30;99.90;;;;;;5052718;28;20152;-79
2022/06/10 09:16:29;;;;;;;18.33;5.28;;;18.10;99.90;;;;;;5043668;28;20135;-77
2022/06/10 09:19:04;;;;;;;14.00;6.82;;;18.30;99.90;;;;;;5064009;28;20126;-77
2022/06/10 09:21:48;;;;;;;11.85;4.50;;;18.50;99.90;;;;;;5047510;28;20167;-79
2022/06/10 09:24:38;;;;;;;12.70;5.88;;;18.40;99.90;;;;;;5080359;28;20048;-79
2022/06/10 09:27:17;;;;;;;15.32;5.00;;;18.20;99.90;;;;;;5047433;28;20083;-79
2022/06/10 09:29:43;;;;;;;15.50;5.50;;;18.10;99.90;;;;;;5053812;28;20036;-79
2022/06/10 09:32:16;;;;;;;10.23;4.72;;;18.10;99.90;;;;;;5029943;28;20055;-79
2022/06/10 09:35:06;;;;;;;11.35;5.43;;;18.10;99.90;;;;;;5065296;28;20126;-77
2022/06/10 09:37:49;;;;;;;8.93;4.93;;;18.30;99.90;;;;;;5064695;28;20052;-79
2022/06/10 09:40:36;;;;;;;11.27;5.50;;;18.30;99.90;;;;;;5025179;28;20499;-80
2022/06/10 09:43:22;;;;;;;9.00;4.72;;;18.30;99.90;;;;;;5044557;28;20518;-78
2022/06/10 09:46:16;;;;;;;9.15;4.38;;;18.40;99.90;;;;;;5056171;28;20091;-78
2022/06/10 09:49:02;;;;;;;12.57;4.65;;;18.20;99.90;;;;;;5063070;28;20036;-80
2022/06/10 09:51:53;;;;;;;13.50;4.90;;;18.00;99.90;;;;;;5030919;28;20044;-79
2022/06/10 09:54:32;;;;;;;11.60;4.70;;;18.00;99.90;;;;;;5044555;28;20044;-80
2022/06/10 09:57:17;;;;;;;16.67;5.70;;;18.10;99.90;;;;;;5077250;28;20569;-80
2022/06/10 09:59:51;;;;;;;14.88;5.40;;;18.20;99.90;;;;;;5030433;28;20075;-81
2022/06/10 10:02:44;;;;;;;12.63;5.00;;;18.30;99.90;;;;;;5023429;28;20044;-81
2022/06/10 10:05:28;;;;;;;11.55;4.88;;;18.50;99.90;;;;;;5034458;28;20801;-81
2022/06/10 10:08:04;;;;;;;10.25;4.45;;;18.80;99.90;;;;;;5046760;28;20048;-81
2022/06/10 10:10:48;;;;;;;8.73;3.85;;;19.00;99.90;;;;;;5048821;28;20060;-82
2022/06/10 10:13:26;;;;;;;10.32;4.15;;;19.20;99.90;;;;;;5077800;28;20051;-82
2022/06/10 10:15:52;;;;;;;10.48;4.65;;;19.80;99.90;;;;;;5029375;28;20051;-82
2022/06/10 10:18:39;;;;;;;12.25;4.05;;;20.20;99.90;;;;;;5027282;28;20871;-82
2022/06/10 10:21:18;;;;;;;9.70;3.70;;;20.60;99.90;;;;;;5063740;28;20558;-83
2022/06/10 10:23:51;;;;;;;8.00;3.80;;;20.60;99.90;;;;;;5030155;28;20097;-82
2022/06/10 10:26:32;;;;;;;11.05;3.45;;;20.50;99.90;;;;;;5045530;28;20044;-83
2022/06/10 10:29:11;;;;;;;10.77;3.92;;;20.30;99.90;;;;;;5054404;28;20054;-83
2022/06/10 10:32:06;;;;;;;9.23;3.95;;;20.20;99.90;;;;;;5073388;28;20142;-80
2022/06/10 10:34:37;;;;;;;11.57;3.95;;;20.10;99.90;;;;;;5053913;28;20052;-83
2022/06/10 10:37:23;;;;;;;11.25;3.25;;;20.20;99.90;;;;;;5056203;28;20055;-82
2022/06/10 10:39:54;;;;;;;6.68;2.90;;;20.60;99.90;;;;;;5045762;28;20067;-83
2022/06/10 10:42:30;;;;;;;8.35;2.97;;;20.70;99.90;;;;;;5019903;28;20044;-82
2022/06/10 10:45:34;;;;;;;10.15;3.45;;;21.20;99.90;;;;;;5064009;28;20080;-82
2022/06/10 10:48:32;;;;;;;9.60;3.80;;;21.20;99.90;;;;;;5043764;28;20044;-83
2022/06/10 10:51:10;;;;;;;9.98;3.10;;;21.20;99.90;;;;;;5072450;28;20393;-83
2022/06/10 10:53:48;;;;;;;11.15;3.45;;;21.60;99.90;;;;;;5042288;28;20044;-84
2022/06/10 10:56:18;;;;;;;9.23;3.08;;;21.40;99.90;;;;;;5062834;28;20117;-83
2022/06/10 10:58:58;;;;;;;8.38;3.53;;;21.40;99.90;;;;;;5078309;28;20040;-83
2022/06/10 11:02:23;;;;;;;8.57;3.20;;;21.40;99.90;;;;;;5039405;28;20110;-83
2022/06/10 11:04:51;;;;;;;10.27;2.88;;;21.10;99.90;;;;;;4979840;28;20064;-85
2022/06/10 11:07:22;;;;;;;13.95;3.13;;;20.90;99.90;;;;;;4961774;28;20034;-83
2022/06/10 11:10:20;;;;;;;7.05;3.35;;;21.00;99.90;;;;;;5050353;28;20048;-84
2022/06/10 11:12:50;;;;;;;9.77;3.85;;;20.90;99.90;;;;;;5051177;28;20052;-83
2022/06/10 11:15:50;;;;;;;10.45;3.50;;;20.90;99.90;;;;;;5054561;28;20074;-83
2022/06/10 11:18:20;;;;;;;9.77;3.90;;;20.90;99.90;;;;;;5015958;28;20048;-80
2022/06/10 11:20:46;;;;;;;12.95;5.65;;;21.10;99.90;;;;;;5010353;28;20372;-81
2022/06/10 11:23:27;;;;;;;9.32;6.35;;;21.10;99.90;;;;;;5024324;28;20051;-81
2022/06/10 11:26:29;;;;;;;7.75;3.53;;;21.60;99.90;;;;;;5022070;28;20076;-82
2022/06/10 11:29:02;;;;;;;19.98;13.15;;;22.00;99.90;;;;;;5034279;28;20044;-86
2022/06/10 11:31:44;;;;;;;12.70;5.75;;;22.40;99.90;;;;;;5056585;28;20044;-86
2022/06/10 11:34:18;;;;;;;12.13;4.95;;;23.00;99.90;;;;;;5048167;28;20068;-85
2022/06/10 11:36:54;;;;;;;11.90;6.03;;;23.40;99.90;;;;;;5026123;28;21116;-88
2022/06/10 11:39:49;;;;;;;24.83;21.45;;;23.30;99.90;;;;;;5042626;28;20058;-79
2022/06/10 11:42:18;;;;;;;11.13;5.07;;;23.10;99.90;;;;;;5055192;28;20051;-81
2022/06/10 11:44:53;;;;;;;11.18;4.30;;;23.10;99.90;;;;;;5042200;28;20110;-82
2022/06/10 11:47:25;;;;;;;10.77;4.28;;;22.70;99.90;;;;;;5042750;28;20554;-82
2022/06/10 11:50:03;;;;;;;8.10;4.20;;;22.30;99.90;;;;;;5061229;28;20044;-74
2022/06/10 11:52:51;;;;;;;14.88;4.93;;;22.10;99.90;;;;;;5061098;28;20072;-80
2022/06/10 11:55:33;;;;;;;11.18;3.80;;;21.70;99.90;;;;;;5047754;28;20089;-82
2022/06/10 12:01:16;;;;;;;12.18;8.10;;;21.60;99.90;;;;;;5077284;28;20483;-81
2022/06/10 12:04:03;;;;;;;13.52;9.05;;;21.90;99.90;;;;;;5057995;28;20143;-82
2022/06/10 12:06:43;;;;;;;11.25;4.57;;;22.30;99.90;;;;;;5044416;28;20051;-82
2022/06/10 12:09:33;;;;;;;8.60;3.72;;;22.50;99.90;;;;;;5058053;28;20097;-81
2022/06/10 12:12:21;;;;;;;18.42;10.27;;;22.50;99.90;;;;;;5041943;28;20039;-82
2022/06/10 12:14:54;;;;;;;10.63;4.45;;;22.40;99.90;;;;;;5042733;28;20120;-82
2022/06/10 12:17:34;;;;;;;14.20;4.65;;;22.40;99.90;;;;;;5021217;28;20035;-87
2022/06/10 12:20:14;;;;;;;11.57;5.63;;;22.40;99.90;;;;;;5073697;28;20040;-81
2022/06/10 12:22:40;;;;;;;16.83;11.35;;;22.50;99.90;;;;;;5055023;28;20052;-80
2022/06/10 12:25:21;;;;;;;13.77;5.50;;;22.50;99.90;;;;;;5041737;28;20036;-81
2022/06/10 12:28:40;;;;;;;10.38;4.57;;;22.40;99.90;;;;;;5040558;28;20051;-80
2022/06/10 12:31:33;;;;;;;15.00;9.80;;;22.10;99.90;;;;;;4946826;28;20052;-80
2022/06/10 12:34:20;;;;;;;11.98;3.53;;;22.00;99.90;;;;;;5058073;28;20231;-80
2022/06/10 12:36:51;;;;;;;16.65;9.18;;;21.90;99.90;;;;;;5043715;28;20133;-80
2022/06/10 12:39:42;;;;;;;18.77;14.38;;;21.80;99.90;;;;;;5039718;28;20048;-80
2022/06/10 12:42:18;;;;;;;14.13;4.47;;;21.70;99.90;;;;;;5041123;28;20040;-79
2022/06/10 12:44:50;;;;;;;10.30;5.32;;;21.60;99.90;;;;;;5044182;28;20043;-80
2022/06/10 12:47:27;;;;;;;7.63;3.30;;;21.40;99.90;;;;;;5042029;28;20389;-79
2022/06/10 12:50:00;;;;;;;20.17;14.75;;;21.40;99.90;;;;;;5043046;28;20392;-80
2022/06/10 12:52:56;;;;;;;9.73;3.22;;;21.60;99.90;;;;;;5041628;28;20036;-81
2022/06/10 12:55:44;;;;;;;10.27;3.15;;;21.70;99.90;;;;;;5056213;28;20047;-80
2022/06/10 12:58:45;;;;;;;8.65;3.85;;;22.10;99.90;;;;;;5057928;28;20777;-83
2022/06/10 13:01:45;;;;;;;10.00;3.85;;;22.40;99.90;;;;;;5057008;28;20482;-81
2022/06/10 13:04:20;;;;;;;10.95;6.97;;;22.50;99.90;;;;;;5026550;28;20049;-82
2022/06/10 13:07:00;;;;;;;11.73;6.57;;;22.50;99.90;;;;;;5033349;28;20082;-83
2022/06/10 13:09:34;;;;;;;12.00;7.00;;;22.50;99.90;;;;;;5104507;28;20036;-82
2022/06/10 13:12:07;;;;;;;16.23;6.45;;;22.40;99.90;;;;;;5070001;28;20044;-82
2022/06/10 13:14:34;;;;;;;9.15;3.35;;;22.30;99.90;;;;;;5067394;28;20036;-82
2022/06/10 13:17:14;;;;;;;13.93;8.15;;;22.00;99.90;;;;;;5047590;28;20346;-82
2022/06/10 13:19:58;;;;;;;11.10;3.35;;;21.90;99.90;;;;;;5072087;28;20032;-83
2022/06/10 13:22:33;;;;;;;13.73;4.57;;;21.80;99.90;;;;;;5067724;28;20682;-78
2022/06/10 13:24:59;;;;;;;7.88;2.35;;;22.00;99.90;;;;;;5064809;28;20048;-79
2022/06/10 13:27:30;;;;;;;10.23;4.03;;;22.30;99.90;;;;;;5049301;28;20052;-78
2022/06/10 13:30:25;;;;;;;11.02;2.90;;;22.70;99.90;;;;;;5072237;28;20083;-79
2022/06/10 13:33:10;;;;;;;10.65;2.95;;;23.20;99.90;;;;;;5040752;28;20068;-78